createdAt,value
2019-02-04T00:00:36.663Z,99261.77
2019-02-04T00:03:24.596Z,99266.27
2019-02-04T00:06:11.918Z,99261.51
2019-02-04T00:08:59.654Z,99266.57
2019-02-04T00:11:46.667Z,99262.30
2019-02-04T00:14:34.112Z,99267.89
2019-02-04T00:17:21.511Z,99268.58
2019-02-04T00:20:11.266Z,99271.30
2019-02-04T00:22:58.715Z,99269.86
2019-02-04T00:25:46.036Z,99271.80
2019-02-04T00:28:33.560Z,99271.72
2019-02-04T00:31:21.086Z,99277.98
2019-02-04T00:34:08.512Z,99280.91
2019-02-04T00:36:56.140Z,99277.20
2019-02-04T00:39:44.076Z,99284.45
2019-02-04T00:42:31.508Z,99285.77
2019-02-04T00:45:18.820Z,99286.68
2019-02-04T00:48:06.655Z,99293.70
2019-02-04T00:50:54.285Z,99296.00
2019-02-04T00:53:41.914Z,99292.72
2019-02-04T00:56:29.235Z,99303.18
2019-02-04T00:59:16.562Z,99308.57
2019-02-04T01:02:03.878Z,99305.34
2019-02-04T01:04:51.403Z,99302.00
2019-02-04T01:07:38.828Z,99306.20
2019-02-04T01:10:32.501Z,99303.23
2019-02-04T01:13:19.943Z,99303.83
2019-02-04T01:16:07.554Z,99304.07
2019-02-04T01:18:54.878Z,99305.22
2019-02-04T01:21:42.404Z,99312.00
2019-02-04T01:24:30.249Z,99319.56
2019-02-04T01:27:17.862Z,99317.17
2019-02-04T01:30:12.047Z,99315.29
2019-02-04T01:32:59.787Z,99321.70
2019-02-04T01:35:47.711Z,99328.51
2019-02-04T01:38:34.838Z,99330.39
2019-02-04T01:41:22.081Z,99324.67
2019-02-04T01:44:09.473Z,99332.93
2019-02-04T01:46:56.793Z,99336.55
2019-02-04T01:49:44.627Z,99333.32
2019-02-04T01:52:31.958Z,99341.84
2019-02-04T01:55:19.377Z,99339.40
2019-02-04T01:58:06.286Z,99340.48
2019-02-04T02:00:53.913Z,99336.20
2019-02-04T02:03:41.237Z,99345.59
2019-02-04T02:06:28.249Z,99345.00
2019-02-04T02:09:17.519Z,99348.50
2019-02-04T02:12:05.251Z,99353.87
2019-02-04T02:14:52.467Z,99353.96
2019-02-04T02:17:40.196Z,99345.16
2019-02-04T02:20:29.056Z,99353.13
2019-02-04T02:23:16.279Z,99354.94
2019-02-04T02:26:03.597Z,99368.05
2019-02-04T02:28:51.249Z,99367.59
2019-02-04T02:31:39.065Z,99372.20
2019-02-04T02:34:26.383Z,99369.61
2019-02-04T02:37:13.812Z,99373.51
2019-02-04T02:40:01.741Z,99380.77
2019-02-04T02:42:49.271Z,99382.39
2019-02-04T02:45:36.799Z,99384.23
2019-02-04T02:48:24.012Z,99383.72
2019-02-04T02:51:11.748Z,99385.37
2019-02-04T02:53:59.169Z,99392.82
2019-02-04T02:56:46.488Z,99391.98
2019-02-04T02:59:33.914Z,99396.55
2019-02-04T03:02:21.246Z,99399.06
2019-02-04T03:05:11.539Z,99399.72
2019-02-04T03:07:58.850Z,99402.73
2019-02-04T03:10:46.373Z,99412.07
2019-02-04T03:13:33.901Z,99415.44
2019-02-04T03:16:21.019Z,99418.58
2019-02-04T03:19:08.593Z,99413.27
2019-02-04T03:21:56.687Z,99411.63
2019-02-04T03:24:44.032Z,99407.07
2019-02-04T03:27:31.858Z,99397.33
2019-02-04T03:30:22.854Z,99393.91
2019-02-04T03:33:10.273Z,99397.08
2019-02-04T03:35:57.698Z,99407.17
2019-02-04T03:38:45.837Z,99409.42
2019-02-04T03:41:33.266Z,99409.44
2019-02-04T03:44:20.892Z,99422.79
2019-02-04T03:47:07.799Z,99428.33
2019-02-04T03:49:55.129Z,99435.92
2019-02-04T03:52:42.243Z,99441.87
2019-02-04T03:55:30.378Z,99447.97
2019-02-04T03:58:17.637Z,99458.16
2019-02-04T04:01:05.436Z,99463.46
2019-02-04T04:03:53.265Z,99463.92
2019-02-04T04:06:40.493Z,99473.38
2019-02-04T04:09:28.117Z,99477.42
2019-02-04T04:12:15.754Z,99474.56
2019-02-04T04:15:04.395Z,99470.59
2019-02-04T04:17:51.619Z,99474.64
2019-02-04T04:20:39.447Z,99475.59
2019-02-04T04:23:26.565Z,99473.91
2019-02-04T04:26:14.473Z,99480.97
2019-02-04T04:29:01.722Z,99487.08
2019-02-04T04:31:49.250Z,99488.10
2019-02-04T04:34:36.569Z,99491.80
2019-02-04T04:37:23.688Z,99490.95
2019-02-04T04:40:12.992Z,99482.34
2019-02-04T04:43:00.579Z,99481.69
2019-02-04T04:45:48.007Z,99480.11
2019-02-04T04:48:35.025Z,99487.41
2019-02-04T04:51:22.446Z,99489.26
2019-02-04T04:54:09.882Z,99488.88
2019-02-04T04:56:57.404Z,99485.91
2019-02-04T04:59:44.715Z,99486.27
2019-02-04T05:02:31.933Z,99492.22
2019-02-04T05:05:19.868Z,99487.95
2019-02-04T05:08:07.207Z,99493.59
2019-02-04T05:10:54.620Z,99493.31
2019-02-04T05:13:42.247Z,99484.56
2019-02-04T05:16:29.774Z,99487.73
2019-02-04T05:19:17.411Z,99480.20
2019-02-04T05:22:05.031Z,99477.45
2019-02-04T05:24:52.352Z,99479.77
2019-02-04T05:27:39.675Z,99484.88
2019-02-04T05:30:27.616Z,99492.22
2019-02-04T05:33:14.724Z,99495.68
2019-02-04T05:36:02.355Z,99485.91
2019-02-04T05:38:49.678Z,99488.42
2019-02-04T05:41:37.020Z,99491.02
2019-02-04T05:44:24.114Z,99490.56
2019-02-04T05:47:11.332Z,99490.75
2019-02-04T05:49:59.068Z,99500.30
2019-02-04T05:52:46.796Z,99494.28
2019-02-04T05:55:34.458Z,99497.98
2019-02-04T05:58:21.862Z,99495.59
2019-02-04T06:01:12.342Z,99494.41
2019-02-04T06:03:59.859Z,99494.67
2019-02-04T06:06:47.498Z,99495.97
2019-02-04T06:09:34.936Z,99505.63
2019-02-04T06:12:22.346Z,99497.00
2019-02-04T06:15:15.670Z,99499.59
2019-02-04T06:18:03.236Z,99497.27
2019-02-04T06:20:50.760Z,99498.76
2019-02-04T06:23:37.884Z,99509.12
2019-02-04T06:26:26.541Z,99510.54
2019-02-04T06:29:13.856Z,99518.96
2019-02-04T06:32:01.378Z,99516.91
2019-02-04T06:34:48.495Z,99514.66
2019-02-04T06:37:35.957Z,99516.89
2019-02-04T06:40:24.273Z,99515.80
2019-02-04T06:43:11.975Z,99515.80
2019-02-04T06:45:59.317Z,99518.21
2019-02-04T06:48:46.744Z,99532.48
2019-02-04T06:51:34.166Z,99536.37
2019-02-04T06:54:21.499Z,99535.64
2019-02-04T06:57:09.423Z,99537.67
2019-02-04T06:59:56.847Z,99535.81
2019-02-04T07:02:44.374Z,99541.94
2019-02-04T07:05:43.164Z,99551.86
2019-02-04T07:08:20.656Z,99553.22
2019-02-04T07:11:08.301Z,99555.75
2019-02-04T07:13:56.121Z,99553.88
2019-02-04T07:16:43.551Z,99564.90
2019-02-04T07:19:31.169Z,99564.73
2019-02-04T07:22:18.902Z,99574.39
2019-02-04T07:25:13.576Z,99576.16
2019-02-04T07:28:00.733Z,99573.08
2019-02-04T07:30:48.141Z,99572.08
2019-02-04T07:33:35.565Z,99574.37
2019-02-04T07:36:23.088Z,99572.80
2019-02-04T07:39:10.922Z,99569.81
2019-02-04T07:41:58.755Z,99566.67
2019-02-04T07:44:45.974Z,99561.62
2019-02-04T07:47:33.500Z,99564.59
2019-02-04T07:50:20.921Z,99565.20
2019-02-04T07:53:08.653Z,99564.89
2019-02-04T07:55:56.183Z,99562.05
2019-02-04T07:58:43.912Z,99562.45
2019-02-04T08:01:31.747Z,99557.91
2019-02-04T08:04:19.281Z,99559.16
2019-02-04T08:07:06.597Z,99562.75
2019-02-04T08:09:54.528Z,99566.48
2019-02-04T08:12:42.156Z,99561.22
2019-02-04T08:15:37.568Z,99574.83
2019-02-04T08:18:24.788Z,99564.14
2019-02-04T08:21:12.655Z,99568.45
2019-02-04T08:24:00.156Z,99564.42
2019-02-04T08:26:47.387Z,99558.67
2019-02-04T08:29:34.690Z,99558.19
2019-02-04T08:32:22.522Z,99567.16
2019-02-04T08:35:10.663Z,99561.00
2019-02-04T08:37:58.293Z,99555.08
2019-02-04T08:40:45.920Z,99552.73
2019-02-04T08:43:33.346Z,99556.55
2019-02-04T08:46:20.873Z,99550.77
2019-02-04T08:49:08.093Z,99561.53
2019-02-04T08:51:55.616Z,99558.11
2019-02-04T08:54:43.453Z,99552.09
2019-02-04T08:57:31.416Z,99554.36
2019-02-04T09:00:24.282Z,99551.77
2019-02-04T09:03:11.256Z,99554.90
2019-02-04T09:05:58.579Z,99549.36
2019-02-04T09:08:45.894Z,99554.62
2019-02-04T09:11:33.324Z,99553.63
2019-02-04T09:14:21.050Z,99554.73
2019-02-04T09:17:08.373Z,99550.23
2019-02-04T09:19:55.283Z,99551.64
2019-02-04T09:22:43.015Z,99548.20
2019-02-04T09:25:30.444Z,99549.99
2019-02-04T09:28:17.967Z,99543.70
2019-02-04T09:31:05.371Z,99541.62
2019-02-04T09:33:53.528Z,99541.02
2019-02-04T09:36:41.057Z,99536.98
2019-02-04T09:39:28.894Z,99536.98
2019-02-04T09:42:16.620Z,99542.23
2019-02-04T09:45:04.658Z,99532.23
2019-02-04T09:47:52.087Z,99528.38
2019-02-04T09:50:42.389Z,99535.64
2019-02-04T09:53:30.006Z,99529.20
2019-02-04T09:56:17.229Z,99528.48
2019-02-04T09:59:04.644Z,99523.11
2019-02-04T10:01:51.920Z,99524.82
2019-02-04T10:04:39.594Z,99523.23
2019-02-04T10:07:26.814Z,99528.87
2019-02-04T10:10:17.514Z,99521.59
2019-02-04T10:13:05.889Z,99521.11
2019-02-04T10:15:52.879Z,99523.31
2019-02-04T10:18:40.925Z,99516.84
2019-02-04T10:21:28.351Z,99511.46
2019-02-04T10:24:15.395Z,99509.89
2019-02-04T10:27:02.779Z,99514.45
2019-02-04T10:29:50.648Z,99511.96
2019-02-04T10:32:38.547Z,99519.30
2019-02-04T10:35:26.115Z,99515.72
2019-02-04T10:38:16.366Z,99516.05
2019-02-04T10:41:03.019Z,99515.44
2019-02-04T10:43:50.915Z,99519.48
2019-02-04T10:46:37.821Z,99518.19
2019-02-04T10:49:25.169Z,99508.86
2019-02-04T10:52:12.501Z,99511.78
2019-02-04T10:55:00.185Z,99518.29
2019-02-04T10:57:47.959Z,99514.44
2019-02-04T11:00:36.137Z,99506.67
2019-02-04T11:03:23.997Z,99509.62
2019-02-04T11:06:11.372Z,99503.67
2019-02-04T11:08:59.089Z,99494.71
2019-02-04T11:11:46.707Z,99496.53
2019-02-04T11:14:34.525Z,99486.73
2019-02-04T11:17:22.065Z,99480.11
2019-02-04T11:20:12.270Z,99481.55
2019-02-04T11:23:00.074Z,99470.23
2019-02-04T11:25:48.198Z,99461.95
2019-02-04T11:28:36.242Z,99458.02
2019-02-04T11:31:23.786Z,99448.80
2019-02-04T11:34:11.501Z,99444.42
2019-02-04T11:36:59.127Z,99442.33
2019-02-04T11:39:46.890Z,99442.16
2019-02-04T11:42:34.282Z,99436.37
2019-02-04T11:45:21.824Z,99435.77
2019-02-04T11:48:12.454Z,99433.72
2019-02-04T11:51:09.367Z,99432.34
2019-02-04T11:53:49.815Z,99423.50
2019-02-04T11:56:37.344Z,99435.42
2019-02-04T11:59:24.768Z,99427.84
2019-02-04T12:02:12.581Z,99426.52
2019-02-04T12:04:59.933Z,99423.15
2019-02-04T12:07:48.375Z,99431.58
2019-02-04T12:10:41.423Z,99425.78
2019-02-04T12:13:28.849Z,99420.59
2019-02-04T12:16:16.581Z,99424.29
2019-02-04T12:19:04.209Z,99432.81
2019-02-04T12:21:51.532Z,99426.20
2019-02-04T12:24:41.881Z,99421.35
2019-02-04T12:27:32.066Z,99416.88
2019-02-04T12:30:30.812Z,99413.68
2019-02-04T12:33:17.357Z,99410.72
2019-02-04T12:36:04.930Z,99405.27
2019-02-04T12:38:52.253Z,99404.81
2019-02-04T12:41:41.228Z,99393.55
2019-02-04T12:44:28.635Z,99400.09
2019-02-04T12:47:16.369Z,99391.95
2019-02-04T12:50:07.171Z,99395.00
2019-02-04T12:52:54.766Z,99388.83
2019-02-04T12:55:42.326Z,99379.96
2019-02-04T12:58:30.160Z,99373.64
2019-02-04T13:01:18.709Z,99373.91
2019-02-04T13:04:06.034Z,99370.61
2019-02-04T13:06:53.252Z,99375.27
2019-02-04T13:09:40.778Z,99370.80
2019-02-04T13:12:29.327Z,99376.39
2019-02-04T13:15:21.769Z,99370.27
2019-02-04T13:18:09.502Z,99376.91
2019-02-04T13:20:56.925Z,99360.25
2019-02-04T13:23:44.475Z,99360.81
2019-02-04T13:26:31.981Z,99367.53
2019-02-04T13:29:19.403Z,99361.05
2019-02-04T13:32:06.721Z,99362.77
2019-02-04T13:34:54.354Z,99358.21
2019-02-04T13:37:41.673Z,99357.42
2019-02-04T13:40:30.366Z,99354.93
2019-02-04T13:43:17.750Z,99353.77
2019-02-04T13:46:05.952Z,99356.45
2019-02-04T13:48:53.315Z,99353.48
2019-02-04T13:51:40.679Z,99357.00
2019-02-04T13:54:28.375Z,99358.08
2019-02-04T13:57:16.098Z,99351.09
2019-02-04T14:00:05.224Z,99353.68
2019-02-04T14:02:59.355Z,99356.97
2019-02-04T14:05:41.954Z,99363.20
2019-02-04T14:08:29.800Z,99358.64
2019-02-04T14:11:17.217Z,99371.12
2019-02-04T14:14:04.330Z,99369.60
2019-02-04T14:16:51.858Z,99367.23
2019-02-04T14:19:39.489Z,99361.59
2019-02-04T14:22:27.116Z,99362.90
2019-02-04T14:25:15.479Z,99361.48
2019-02-04T14:28:22.493Z,99355.88
2019-02-04T14:31:09.969Z,99362.47
2019-02-04T14:33:58.133Z,99352.63
2019-02-04T14:36:45.640Z,99349.66
2019-02-04T14:39:33.371Z,99354.27
2019-02-04T14:42:21.304Z,99352.93
2019-02-04T14:45:11.906Z,99355.70
2019-02-04T14:48:06.140Z,99347.23
2019-02-04T14:51:04.893Z,99350.27
2019-02-04T14:54:37.379Z,99346.28
2019-02-04T14:57:29.599Z,99346.42
2019-02-04T15:00:22.647Z,99358.11
2019-02-04T15:03:29.843Z,99342.73
2019-02-04T15:06:26.383Z,99346.34
2019-02-04T15:09:31.834Z,99352.28
2019-02-04T15:12:22.278Z,99344.33
2019-02-04T15:15:18.342Z,99345.53
2019-02-04T15:18:08.944Z,99341.30
2019-02-04T15:21:21.043Z,99331.69
2019-02-04T15:24:23.121Z,99333.95
2019-02-04T15:27:22.523Z,99336.45
2019-02-04T15:30:16.009Z,99338.72
2019-02-04T15:33:21.734Z,99333.48
2019-02-04T15:36:30.302Z,99331.60
2019-02-04T15:39:24.230Z,99335.16
2019-02-04T15:42:36.694Z,99333.47
2019-02-04T15:45:45.366Z,99335.03
2019-02-04T15:48:45.073Z,99331.91
2019-02-04T15:51:35.483Z,99338.51
2019-02-04T15:54:24.225Z,99330.97
2019-02-04T15:57:12.303Z,99337.03
2019-02-04T15:59:59.700Z,99338.23
2019-02-04T16:02:47.233Z,99341.24
2019-02-04T16:05:34.740Z,99332.25
2019-02-04T16:08:22.370Z,99329.70
2019-02-04T16:11:10.101Z,99340.38
2019-02-04T16:13:57.729Z,99334.33
2019-02-04T16:16:45.572Z,99328.38
2019-02-04T16:19:33.095Z,99326.56
2019-02-04T16:22:20.717Z,99323.25
2019-02-04T16:25:10.880Z,99321.11
2019-02-04T16:27:58.124Z,99320.09
2019-02-04T16:30:45.262Z,99320.05
2019-02-04T16:33:33.383Z,99319.09
2019-02-04T16:36:20.815Z,99317.59
2019-02-04T16:39:10.561Z,99313.86
2019-02-04T16:41:57.819Z,99322.41
2019-02-04T16:44:45.642Z,99319.20
2019-02-04T16:47:33.073Z,99320.69
2019-02-04T16:50:26.148Z,99322.27
2019-02-04T16:53:13.543Z,99322.86
2019-02-04T16:56:01.377Z,99323.44
2019-02-04T16:58:49.007Z,99328.08
2019-02-04T17:01:36.339Z,99330.22
2019-02-04T17:04:23.810Z,99330.03
2019-02-04T17:07:11.808Z,99320.59
2019-02-04T17:09:59.214Z,99339.95
2019-02-04T17:12:46.640Z,99332.28
2019-02-04T17:15:34.178Z,99336.61
2019-02-04T17:18:22.621Z,99329.73
2019-02-04T17:21:10.186Z,99335.23
2019-02-04T17:23:57.721Z,99339.91
2019-02-04T17:26:45.208Z,99335.16
2019-02-04T17:29:33.029Z,99338.00
2019-02-04T17:32:20.659Z,99333.86
2019-02-04T17:35:08.489Z,99339.73
2019-02-04T17:37:56.116Z,99341.99
2019-02-04T17:40:43.968Z,99334.19
2019-02-04T17:43:31.294Z,99332.65
2019-02-04T17:46:19.006Z,99340.70
2019-02-04T17:49:06.443Z,99341.59
2019-02-04T17:51:54.215Z,99332.84
2019-02-04T17:54:41.788Z,99337.73
2019-02-04T17:57:29.523Z,99340.78
2019-02-04T18:00:21.031Z,99251.11
2019-02-04T18:03:08.888Z,99337.49
2019-02-04T18:05:56.557Z,99345.30
2019-02-04T18:08:43.926Z,99341.50
2019-02-04T18:11:31.347Z,99335.63
2019-02-04T18:14:18.878Z,99336.19
2019-02-04T18:17:07.061Z,99331.95
2019-02-04T18:19:54.748Z,99343.25
2019-02-04T18:22:42.279Z,99338.00
2019-02-04T18:25:29.701Z,99340.62
2019-02-04T18:28:17.329Z,99001.40
2019-02-04T18:31:04.757Z,99333.16
2019-02-04T18:33:54.328Z,99329.81
2019-02-04T18:36:41.545Z,99325.13
2019-02-04T18:39:29.386Z,99318.34
2019-02-04T18:42:16.393Z,99322.98
2019-02-04T18:45:05.466Z,99322.31
2019-02-04T18:47:53.391Z,99319.34
2019-02-04T18:50:41.224Z,99320.69
2019-02-04T18:53:28.961Z,99321.40
2019-02-04T18:56:16.646Z,99326.82
2019-02-04T18:59:04.215Z,99327.74
2019-02-04T19:01:51.538Z,99322.14
2019-02-04T19:04:38.653Z,99318.95
2019-02-04T19:07:26.281Z,99320.49
2019-02-04T19:10:16.983Z,99314.67
2019-02-04T19:13:04.421Z,99322.59
2019-02-04T19:15:52.033Z,99325.02
2019-02-04T19:18:39.355Z,99326.27
2019-02-04T19:21:26.349Z,99325.30
2019-02-04T19:24:13.691Z,99329.30
2019-02-04T19:27:01.220Z,99323.86
2019-02-04T19:29:49.496Z,99319.39
2019-02-04T19:32:36.886Z,99321.70
2019-02-04T19:35:24.740Z,99323.68
2019-02-04T19:38:12.248Z,99311.14
2019-02-04T19:40:59.470Z,99308.31
2019-02-04T19:43:46.895Z,99312.25
2019-02-04T19:46:34.012Z,99310.50
2019-02-04T19:49:23.584Z,99315.81
2019-02-04T19:52:11.009Z,99312.97
2019-02-04T19:54:58.429Z,99320.95
2019-02-04T19:57:45.863Z,99323.77
2019-02-04T20:00:33.688Z,99322.81
2019-02-04T20:03:21.419Z,99324.20
2019-02-04T20:06:08.846Z,99319.47
2019-02-04T20:08:56.684Z,99324.59
2019-02-04T20:11:44.427Z,99330.20
2019-02-04T20:14:31.935Z,99323.59
2019-02-04T20:17:19.664Z,99319.03
2019-02-04T20:20:09.134Z,99313.94
2019-02-04T20:22:56.924Z,99311.98
2019-02-04T20:25:44.505Z,99320.23
2019-02-04T20:28:32.183Z,99325.65
2019-02-04T20:31:19.879Z,99326.73
2019-02-04T20:34:08.512Z,99335.75
2019-02-04T20:36:55.942Z,99332.95
2019-02-04T20:39:43.666Z,99328.35
2019-02-04T20:42:31.495Z,99318.39
2019-02-04T20:45:19.231Z,99323.84
2019-02-04T20:48:09.008Z,99314.48
2019-02-04T20:50:56.225Z,99314.34
2019-02-04T20:53:43.962Z,99318.92
2019-02-04T20:56:33.860Z,99316.16
2019-02-04T20:59:21.366Z,99306.86
2019-02-04T21:02:08.789Z,99307.11
2019-02-04T21:04:57.647Z,99304.78
2019-02-04T21:07:44.767Z,99309.34
2019-02-04T21:10:32.132Z,99320.83
2019-02-04T21:13:19.612Z,99310.20
2019-02-04T21:16:07.444Z,99314.23
2019-02-04T21:18:54.568Z,99322.87
2019-02-04T21:21:44.034Z,99320.22
2019-02-04T21:24:31.663Z,99333.18
2019-02-04T21:27:19.197Z,99316.47
2019-02-04T21:30:12.634Z,99318.70
2019-02-04T21:33:00.696Z,99321.73
2019-02-04T21:35:48.351Z,99317.61
2019-02-04T21:38:35.954Z,99324.17
2019-02-04T21:41:24.506Z,99317.36
2019-02-04T21:44:13.280Z,99321.88
2019-02-04T21:47:00.990Z,99321.67
2019-02-04T21:49:48.414Z,99312.31
2019-02-04T21:52:35.842Z,99312.12
2019-02-04T21:55:24.182Z,99304.20
2019-02-04T21:58:11.505Z,99295.20
2019-02-04T22:00:58.937Z,99293.45
2019-02-04T22:03:46.557Z,99290.74
2019-02-04T22:06:34.594Z,99294.43
2019-02-04T22:09:21.620Z,99286.59
2019-02-04T22:12:09.031Z,99278.13
2019-02-04T22:14:56.458Z,99281.48
2019-02-04T22:17:45.326Z,99288.82
2019-02-04T22:20:33.054Z,99281.27
2019-02-04T22:23:20.884Z,99278.54
2019-02-04T22:26:08.724Z,99279.27
2019-02-04T22:28:56.137Z,99267.13
2019-02-04T22:31:43.767Z,99272.32
2019-02-04T22:34:30.779Z,99265.14
2019-02-04T22:37:18.101Z,99265.02
2019-02-04T22:40:08.293Z,99273.66
2019-02-04T22:42:56.124Z,99272.56
2019-02-04T22:45:43.549Z,99271.28
2019-02-04T22:48:31.281Z,99276.14
2019-02-04T22:51:18.911Z,99280.82
2019-02-04T22:54:06.303Z,99291.87
2019-02-04T22:56:54.064Z,99293.13
2019-02-04T22:59:41.599Z,99292.63
2019-02-04T23:02:29.632Z,99293.41
2019-02-04T23:05:16.847Z,99293.25
2019-02-04T23:08:04.907Z,99296.31
2019-02-04T23:10:52.207Z,99297.67
2019-02-04T23:13:39.325Z,99297.61
2019-02-04T23:16:27.159Z,99293.00
2019-02-04T23:19:14.582Z,99295.64
2019-02-04T23:22:02.215Z,99305.47
2019-02-04T23:24:49.539Z,99300.73
2019-02-04T23:27:36.961Z,99301.09
2019-02-04T23:30:24.914Z,99293.70
2019-02-04T23:33:12.315Z,99308.69
2019-02-04T23:35:59.963Z,99311.69
2019-02-04T23:38:47.781Z,99313.64
2019-02-04T23:41:35.201Z,99307.50
2019-02-04T23:44:22.220Z,99311.83
2019-02-04T23:47:09.847Z,99309.03
2019-02-04T23:49:57.681Z,99308.91
2019-02-04T23:52:45.186Z,99307.31
2019-02-04T23:55:32.838Z,99310.98
2019-02-04T23:58:20.421Z,99313.42
